Frutal, Brazil
Current Conditions -  °F | °C
As of 6:00 AM on Monday 24 Nov 2014 (Local Time) from SBSR Reporting Station
Broken Clouds Broken Clouds  
Wind Chill: 72°   Ceiling: 2000
Heat Index: 72°   Visibility: 4mi
Dew Point: 70°   Wind: 3mph
Humidity: 94%   Direction: 90°E
Pressure: 29.94"   Gusts: NA
Location:  20.02°S, 48.94°W
Report Text: SBSR 240800Z 09003KT 7000 SCT007 BKN020 BKN070 22/21 Q1014
Loading
Personal Weather Stations






























Interactive Weather Map New forecast layout! Learn more

10-Day Weather Forecast

Advertisements
Track Severe Weather on mobile